Time;durP1;ratioP1;P1;durP2;ratioP2;P2;SDS_P1;SDS_P2;PMS_P1;PMS_P2;Temp;Humidity;BMP_temperature;BMP_pressure;BME280_temperature;BME280_humidity;BME280_pressure;Samples;Min_cycle;Max_cycle;Signal;HPM_P1;HPM_P2
2022/08/20 00:01:45;;;;;;;6.90;4.10;;;;;;;14.26;50.81;100904.56;5035721;28;20045;-75
2022/08/20 00:04:14;;;;;;;7.65;4.30;;;;;;;14.31;50.52;100905.09;5036179;28;20048;-75
2022/08/20 00:06:40;;;;;;;4.93;3.90;;;;;;;14.23;50.73;100885.94;5052049;28;20049;-75
2022/08/20 00:09:06;;;;;;;6.25;4.43;;;;;;;14.29;50.68;100888.22;5035230;28;20041;-75
2022/08/20 00:11:33;;;;;;;7.05;3.58;;;;;;;14.39;50.32;100901.00;5035200;28;20120;-74
2022/08/20 00:14:02;;;;;;;9.18;4.13;;;;;;;14.37;50.50;100901.13;5019145;28;20056;-76
2022/08/20 00:16:32;;;;;;;9.98;4.28;;;;;;;14.39;50.12;100898.31;5035237;28;20040;-75
2022/08/20 00:18:58;;;;;;;;;;;;;;;14.45;50.16;100898.72;5052414;28;20037;-75
2022/08/20 00:21:25;;;;;;;8.13;4.60;;;;;;;14.43;49.83;100894.41;5051373;28;19916;-74
2022/08/20 00:23:53;;;;;;;9.38;4.28;;;;;;;14.37;50.34;100881.41;5051734;28;20045;-75
2022/08/20 00:26:19;;;;;;;6.03;4.65;;;;;;;14.43;50.25;100891.72;5018638;28;20083;-74
2022/08/20 00:28:46;;;;;;;6.82;4.15;;;;;;;14.47;49.79;100904.84;5051676;28;20037;-75
2022/08/20 00:31:16;;;;;;;11.95;4.88;;;;;;;14.48;50.13;100898.53;5051346;28;20041;-75
2022/08/20 00:33:42;;;;;;;10.57;5.10;;;;;;;14.50;50.12;100901.13;5051651;28;20550;-74
2022/08/20 00:36:11;;;;;;;8.30;4.28;;;;;;;14.48;50.22;100898.53;5052801;28;20045;-75
2022/08/20 00:38:38;;;;;;;17.60;5.50;;;;;;;14.51;50.10;100902.84;5034994;28;20055;-75
2022/08/20 00:41:07;;;;;;;10.48;4.40;;;;;;;14.50;50.11;100895.75;5018508;28;20082;-75
2022/08/20 00:43:45;;;;;;;11.50;5.10;;;;;;;14.50;50.59;100901.97;5035014;28;20041;-74
2022/08/20 00:46:22;;;;;;;9.65;4.45;;;;;;;14.49;50.34;100899.38;5051605;28;20140;-75
2022/08/20 00:48:50;;;;;;;9.20;4.40;;;;;;;14.40;50.47;100902.72;5035128;28;20540;-75
2022/08/20 00:51:23;;;;;;;8.75;5.03;;;;;;;14.39;50.43;100901.84;5034846;28;20464;-75
2022/08/20 00:53:49;;;;;;;10.43;4.82;;;;;;;14.35;50.70;100908.41;5051734;28;20053;-74
2022/08/20 00:56:15;;;;;;;11.40;4.88;;;;;;;14.34;50.75;100912.94;5051510;28;20564;-75
2022/08/20 00:58:43;;;;;;;10.18;4.50;;;;;;;14.26;50.51;100901.88;5034844;28;20044;-74
2022/08/20 01:01:10;;;;;;;6.72;4.63;;;;;;;14.24;50.44;100902.94;5051314;28;20411;-75
2022/08/20 01:03:37;;;;;;;13.43;4.75;;;;;;;14.21;50.45;100897.78;5052624;28;20075;-75
2022/08/20 01:06:03;;;;;;;10.07;5.22;;;;;;;14.32;51.01;100919.38;5051379;28;20045;-74
2022/08/20 01:08:29;;;;;;;11.38;5.50;;;;;;;14.32;50.57;100925.63;5034956;28;20064;-74
2022/08/20 01:11:56;;;;;;;10.70;5.15;;;;;;;14.31;50.46;100933.81;5034914;28;20071;-75
2022/08/20 01:13:51;;;;;;;9.38;5.40;;;;;;;14.20;50.76;100929.19;5038063;28;20052;-75
2022/08/20 01:16:30;;;;;;;11.15;5.40;;;;;;;14.18;50.68;100941.91;5052164;28;20492;-74
2022/08/20 01:18:59;;;;;;;9.55;5.57;;;;;;;14.06;50.66;100931.97;5051268;28;20066;-74
2022/08/20 01:21:32;;;;;;;8.38;5.03;;;;;;;13.95;50.95;100927.31;5018198;28;20049;-74
2022/08/20 01:24:03;;;;;;;16.25;5.50;;;;;;;13.75;51.93;100936.75;5018109;28;20060;-75
2022/08/20 01:26:35;;;;;;;10.27;5.20;;;;;;;13.62;51.47;100929.66;5018595;28;20089;-75
2022/08/20 01:29:06;;;;;;;13.48;5.18;;;;;;;13.54;51.94;100932.81;5051201;28;20408;-75
2022/08/20 01:31:35;;;;;;;7.28;4.88;;;;;;;13.41;51.99;100926.56;5051326;28;20040;-75
2022/08/20 01:34:04;;;;;;;13.57;5.37;;;;;;;13.42;52.26;100930.97;5052619;28;20489;-74
2022/08/20 01:36:35;;;;;;;9.88;5.57;;;;;;;13.48;51.96;100935.94;5034367;28;20344;-74
2022/08/20 01:39:06;;;;;;;18.42;5.00;;;;;;;13.42;51.83;100921.09;5018241;28;20052;-74
2022/08/20 01:41:46;;;;;;;17.45;5.88;;;;;;;13.47;52.06;100928.88;5050750;28;20051;-74
2022/08/20 01:44:12;;;;;;;14.57;4.88;;;;;;;13.27;52.77;100931.03;5053607;28;20048;-76
2022/08/20 01:46:41;;;;;;;18.75;5.70;;;;;;;13.20;52.79;100924.31;5054762;28;20060;-75
2022/08/20 01:49:18;;;;;;;14.83;5.77;;;;;;;13.30;52.98;100933.50;5021277;28;20048;-74
2022/08/20 01:51:44;;;;;;;10.43;5.72;;;;;;;13.38;52.47;100933.00;5054816;28;20045;-75
2022/08/20 01:54:10;;;;;;;11.23;5.20;;;;;;;13.42;52.50;100928.28;5055674;28;20531;-74
2022/08/20 01:56:51;;;;;;;16.20;5.35;;;;;;;13.36;53.13;100940.31;5055902;28;20048;-75
2022/08/20 01:59:17;;;;;;;6.40;4.95;;;;;;;13.47;52.77;100936.91;5021152;28;20041;-75
2022/08/20 02:01:43;;;;;;;7.18;5.05;;;;;;;13.56;52.23;100938.97;5054182;28;20052;-75
2022/08/20 02:04:10;;;;;;;10.90;5.65;;;;;;;13.68;52.22;100943.50;5055767;28;20049;-74
2022/08/20 02:06:41;;;;;;;9.57;5.47;;;;;;;13.63;52.37;100936.75;5054122;28;20045;-73
2022/08/20 02:09:07;;;;;;;14.05;5.43;;;;;;;13.73;52.10;100948.59;5055456;28;20135;-74
2022/08/20 02:11:34;;;;;;;10.70;6.05;;;;;;;13.83;51.76;100939.78;5054114;28;20045;-74
2022/08/20 02:14:01;;;;;;;10.88;5.70;;;;;;;13.98;51.86;100937.03;5037307;28;20151;-75
2022/08/20 02:16:31;;;;;;;11.18;5.97;;;;;;;14.04;51.83;100929.41;5037411;28;20040;-75
2022/08/20 02:19:01;;;;;;;12.73;5.72;;;;;;;14.16;51.57;100934.91;5037664;28;20052;-74
2022/08/20 02:21:31;;;;;;;9.60;5.68;;;;;;;14.24;51.48;100933.38;5020999;28;20446;-74
2022/08/20 02:23:58;;;;;;;14.80;5.78;;;;;;;14.36;51.42;100936.19;5053634;28;20055;-74
2022/08/20 02:26:25;;;;;;;12.00;5.70;;;;;;;14.41;51.23;100945.66;5055002;28;20548;-75
2022/08/20 02:28:53;;;;;;;13.77;5.43;;;;;;;14.51;51.11;100941.34;5020841;28;20069;-74
2022/08/20 02:31:21;;;;;;;14.13;5.50;;;;;;;14.62;50.85;100940.59;5037685;28;20048;-76
2022/08/20 02:33:48;;;;;;;12.18;5.55;;;;;;;14.61;50.87;100936.19;5037109;28;20041;-75
2022/08/20 02:36:17;;;;;;;16.60;5.90;;;;;;;14.61;50.49;100933.50;5053600;28;20435;-77
2022/08/20 02:38:45;;;;;;;18.45;6.20;;;;;;;14.65;50.57;100932.31;5037242;28;20546;-75
2022/08/20 02:41:12;;;;;;;10.63;5.55;;;;;;;14.76;50.64;100935.09;5020271;28;20128;-75
2022/08/20 02:43:38;;;;;;;13.35;6.03;;;;;;;14.84;50.31;100941.75;5053795;28;20037;-75
2022/08/20 02:46:05;;;;;;;12.57;5.85;;;;;;;14.90;50.43;100938.63;5036619;28;20051;-75
2022/08/20 02:48:32;;;;;;;12.70;6.15;;;;;;;14.94;50.23;100932.03;5052947;28;20507;-75
2022/08/20 02:51:03;;;;;;;13.85;6.10;;;;;;;15.06;50.46;100936.53;5053233;28;20051;-75
2022/08/20 02:53:33;;;;;;;19.15;5.70;;;;;;;15.02;50.56;100935.91;5052613;28;20044;-76
2022/08/20 02:55:59;;;;;;;9.50;5.90;;;;;;;15.14;50.40;100936.81;5053539;28;20041;-75
2022/08/20 02:58:26;;;;;;;15.55;6.40;;;;;;;15.22;50.37;100933.56;5054417;28;20049;-75
2022/08/20 03:00:53;;;;;;;20.08;6.80;;;;;;;15.32;50.56;100931.06;5053371;28;20090;-76
2022/08/20 03:03:21;;;;;;;16.52;7.25;;;;;;;15.42;50.23;100942.84;5036491;28;20140;-75
2022/08/20 03:05:49;;;;;;;19.07;6.07;;;;;;;15.37;50.48;100942.34;5036593;28;20048;-76
2022/08/20 03:08:16;;;;;;;14.00;6.57;;;;;;;15.44;50.13;100924.75;5052970;28;20358;-77
2022/08/20 03:10:44;;;;;;;19.40;6.57;;;;;;;15.67;49.81;100934.66;5020422;28;20190;-77
2022/08/20 03:13:12;;;;;;;26.65;6.60;;;;;;;15.81;49.75;100939.00;5036724;28;20131;-76
2022/08/20 03:15:51;;;;;;;15.35;6.57;;;;;;;15.88;49.47;100934.88;5019865;28;20052;-74
2022/08/20 03:18:18;;;;;;;14.80;6.32;;;;;;;15.86;49.43;100930.56;5036518;28;20080;-84
2022/08/20 03:20:46;;;;;;;13.40;6.50;;;;;;;15.83;50.02;100926.25;5054120;28;20430;-76
2022/08/20 03:23:13;;;;;;;13.32;6.20;;;;;;;15.77;50.12;100934.84;5034286;28;20044;-80
2022/08/20 03:25:39;;;;;;;14.45;5.72;;;;;;;15.56;50.79;100926.50;5040532;28;20080;-75
2022/08/20 03:28:05;;;;;;;15.88;6.68;;;;;;;15.55;51.34;100927.47;5052404;28;20087;-77
2022/08/20 03:30:32;;;;;;;14.52;6.32;;;;;;;15.60;50.96;100925.28;5036335;28;20091;-78
2022/08/20 03:32:58;;;;;;;9.77;6.32;;;;;;;15.67;51.00;100926.56;5036048;28;20508;-76
2022/08/20 03:35:27;;;;;;;22.38;6.70;;;;;;;15.65;50.69;100912.38;5036282;28;20068;-78
2022/08/20 03:37:54;;;;;;;11.38;6.28;;;;;;;15.89;50.64;100930.34;5036146;28;20048;-74
2022/08/20 03:40:26;;;;;;;17.45;6.30;;;;;;;15.93;50.63;100929.13;5020036;28;20037;-83
2022/08/20 03:42:52;;;;;;;11.85;6.30;;;;;;;16.01;50.86;100929.38;5052885;28;20041;-79
2022/08/20 03:45:20;;;;;;;10.48;5.97;;;;;;;15.93;50.67;100918.31;5053898;28;20041;-79
2022/08/20 03:47:48;;;;;;;19.95;6.63;;;;;;;16.00;50.78;100922.28;5036799;28;20488;-78
2022/08/20 03:50:14;;;;;;;13.70;6.28;;;;;;;16.00;50.51;100927.66;5036282;28;20041;-77
2022/08/20 03:52:40;;;;;;;16.77;7.22;;;;;;;16.09;50.70;100932.34;5052962;28;20473;-78
2022/08/20 03:55:08;;;;;;;22.67;7.13;;;;;;;16.10;51.08;100931.38;5053511;28;20123;-77
2022/08/20 03:57:34;;;;;;;11.50;6.43;;;;;;;16.19;50.78;100933.34;5053159;28;20481;-75
2022/08/20 04:00:03;;;;;;;11.23;6.90;;;;;;;16.29;50.59;100938.03;5052809;28;20090;-75
2022/08/20 04:02:37;;;;;;;10.60;6.78;;;;;;;16.26;50.61;100939.97;5037157;28;20048;-76
2022/08/20 04:05:03;;;;;;;15.73;6.90;;;;;;;16.39;50.83;100939.00;5054387;28;20408;-75
2022/08/20 04:07:29;;;;;;;12.35;6.65;;;;;;;16.39;50.57;100933.59;5050944;28;20043;-75
2022/08/20 04:09:55;;;;;;;9.00;6.32;;;;;;;16.46;50.64;100929.44;5052916;28;20045;-77
2022/08/20 04:12:24;;;;;;;11.07;6.60;;;;;;;16.61;50.22;100939.03;5052638;28;20048;-76
2022/08/20 04:14:51;;;;;;;12.57;7.20;;;;;;;16.61;50.28;100928.22;5034724;28;20107;-77
2022/08/20 04:17:19;;;;;;;10.63;6.78;;;;;;;16.70;49.82;100932.91;5034718;28;20037;-79
2022/08/20 04:19:46;;;;;;;13.07;6.65;;;;;;;16.81;49.58;100931.19;5051260;28;20044;-77
2022/08/20 04:22:12;;;;;;;17.40;7.10;;;;;;;16.93;49.42;100938.31;5051646;28;20037;-76
2022/08/20 04:24:41;;;;;;;12.23;7.05;;;;;;;17.04;49.63;100945.53;5035205;28;20052;-75
2022/08/20 04:27:07;;;;;;;13.75;7.40;;;;;;;17.18;49.45;100935.28;5034979;28;20037;-76
2022/08/20 04:29:35;;;;;;;11.57;6.90;;;;;;;17.32;49.26;100938.72;5050979;28;20051;-75
2022/08/20 04:32:04;;;;;;;11.57;6.47;;;;;;;17.46;48.98;100935.72;5051887;28;20072;-77
2022/08/20 04:34:30;;;;;;;12.25;7.32;;;;;;;17.53;48.26;100945.03;5052087;28;20503;-75
2022/08/20 04:36:56;;;;;;;7.93;6.35;;;;;;;17.50;48.67;100948.00;5034743;28;20037;-76
2022/08/20 04:39:22;;;;;;;11.80;6.85;;;;;;;17.61;48.74;100953.38;5051619;28;20063;-78
2022/08/20 04:41:48;;;;;;;16.58;7.22;;;;;;;17.69;48.55;100953.56;5052627;28;20094;-76
2022/08/20 04:44:14;;;;;;;8.77;6.18;;;;;;;17.75;48.56;100959.44;5051308;28;20033;-84
2022/08/20 04:46:42;;;;;;;11.25;7.03;;;;;;;17.94;48.37;100954.22;5034683;28;20060;-76
2022/08/20 04:49:08;;;;;;;12.00;6.70;;;;;;;18.02;48.00;100938.22;5034694;28;20495;-78
2022/08/20 04:51:34;;;;;;;17.25;6.70;;;;;;;18.13;47.61;100937.28;5053355;28;20131;-91
2022/08/20 04:54:02;;;;;;;10.25;6.55;;;;;;;18.25;47.75;100943.50;5015379;28;20084;-85
2022/08/20 04:56:38;;;;;;;12.32;6.45;;;;;;;18.15;47.71;100922.63;5045518;28;20052;-81
2022/08/20 04:59:06;;;;;;;8.43;6.70;;;;;;;18.18;47.62;100935.03;5015181;28;20063;-80
2022/08/20 05:01:32;;;;;;;13.80;6.65;;;;;;;18.05;47.84;100931.66;5050680;28;20098;-79
2022/08/20 05:03:58;;;;;;;12.23;6.13;;;;;;;18.31;48.27;100948.34;5051755;28;20045;-80
2022/08/20 05:06:30;;;;;;;14.25;6.93;;;;;;;18.44;47.57;100938.19;5052340;28;20048;-75
2022/08/20 05:08:58;;;;;;;17.45;6.45;;;;;;;18.72;47.11;100925.78;5033872;28;20098;-76
2022/08/20 05:11:25;;;;;;;13.75;6.63;;;;;;;18.88;46.66;100936.09;5032678;28;20095;-78
2022/08/20 05:13:51;;;;;;;15.00;7.10;;;;;;;18.98;46.39;100939.69;5032208;28;20106;-81
2022/08/20 05:16:18;;;;;;;14.07;7.82;;;;;;;19.09;46.42;100936.88;5031075;28;20049;-76
2022/08/20 05:18:45;;;;;;;12.15;6.50;;;;;;;19.36;46.24;100925.38;5000755;28;20457;-78
2022/08/20 05:21:11;;;;;;;14.98;6.28;;;;;;;19.60;45.42;100916.84;5018695;28;20038;-76
2022/08/20 05:23:41;;;;;;;8.77;5.88;;;;;;;19.75;45.12;100924.59;5035944;28;20420;-79
2022/08/20 05:26:09;;;;;;;13.48;5.95;;;;;;;19.64;45.28;100917.44;5022992;28;20049;-78
2022/08/20 05:28:38;;;;;;;10.70;6.28;;;;;;;19.92;45.06;100921.13;5022152;28;20416;-78
2022/08/20 05:31:08;;;;;;;13.48;6.03;;;;;;;20.08;44.88;100924.13;5036950;28;20497;-77
2022/08/20 05:33:36;;;;;;;12.95;6.47;;;;;;;19.98;44.96;100923.28;5034364;28;20052;-76
2022/08/20 05:36:05;;;;;;;14.73;6.13;;;;;;;20.03;44.94;100920.97;5019788;28;20056;-79
2022/08/20 05:38:33;;;;;;;13.80;6.32;;;;;;;20.28;44.44;100919.50;5034924;28;20496;-77
2022/08/20 05:41:00;;;;;;;10.20;6.57;;;;;;;20.37;44.29;100925.88;5019075;28;20050;-79
2022/08/20 05:43:26;;;;;;;11.32;6.60;;;;;;;20.61;43.83;100906.38;5036619;28;20045;-80
2022/08/20 05:45:52;;;;;;;12.30;6.38;;;;;;;20.83;43.98;100907.84;5034894;28;20068;-78
2022/08/20 05:48:24;;;;;;;14.88;6.47;;;;;;;21.12;43.33;100904.97;5017626;28;20049;-76
2022/08/20 05:50:53;;;;;;;10.95;5.85;;;;;;;21.12;42.78;100909.56;5035494;28;20050;-77
2022/08/20 05:53:19;;;;;;;;;;;;;;;20.97;42.97;100907.34;5034485;28;20045;-76
2022/08/20 05:55:45;;;;;;;18.73;6.70;;;;;;;20.90;43.61;100903.53;5034312;28;19916;-77
2022/08/20 05:58:22;;;;;;;11.75;6.30;;;;;;;20.95;43.59;100901.22;5018081;28;20041;-76
2022/08/20 06:00:49;;;;;;;11.52;6.20;;;;;;;21.22;43.34;100896.75;5035495;28;20069;-76
2022/08/20 06:06:14;;;;;;;10.40;6.20;;;;;;;21.45;42.91;100892.59;5033763;28;20500;-77
2022/08/20 06:08:40;;;;;;;11.93;6.03;;;;;;;21.86;42.49;100892.13;5034844;28;20055;-77
2022/08/20 06:11:06;;;;;;;9.02;5.70;;;;;;;22.10;41.18;100886.81;5033745;28;20077;-78
2022/08/20 06:13:33;;;;;;;10.55;5.70;;;;;;;22.21;40.93;100891.19;5033314;28;20045;-77
2022/08/20 06:16:00;;;;;;;12.95;5.95;;;;;;;22.18;40.61;100886.06;5034242;28;20049;-79
2022/08/20 06:18:26;;;;;;;9.40;5.35;;;;;;;22.08;40.71;100891.59;5034821;28;20088;-77
2022/08/20 06:20:52;;;;;;;10.13;5.47;;;;;;;21.94;41.01;100884.84;5033605;28;20595;-77
2022/08/20 06:23:19;;;;;;;8.25;4.70;;;;;;;22.14;40.94;100885.53;5035047;28;20128;-80
2022/08/20 06:25:48;;;;;;;11.10;5.25;;;;;;;22.44;40.75;100880.59;5017066;28;20076;-84
2022/08/20 06:28:14;;;;;;;11.20;6.43;;;;;;;22.43;40.40;100890.66;5034183;28;20057;-78
2022/08/20 06:30:40;;;;;;;13.20;5.15;;;;;;;22.32;39.93;100881.91;5034413;28;20045;-90
2022/08/20 06:33:06;;;;;;;12.05;5.05;;;;;;;22.29;40.86;100877.63;5016464;28;20493;-77
2022/08/20 06:35:32;;;;;;;12.82;5.65;;;;;;;22.69;40.67;100874.25;5033083;28;20045;-78
2022/08/20 06:37:59;;;;;;;8.13;4.80;;;;;;;22.78;39.48;100866.94;5033253;28;20045;-80
2022/08/20 06:40:27;;;;;;;10.20;5.18;;;;;;;22.62;39.61;100877.78;5034543;28;20048;-79
2022/08/20 06:42:55;;;;;;;16.90;5.13;;;;;;;22.67;39.88;100867.25;5016639;28;20050;-78
2022/08/20 06:45:28;;;;;;;16.42;4.85;;;;;;;22.93;39.98;100854.41;5032921;28;20041;-77
2022/08/20 06:47:57;;;;;;;12.15;4.78;;;;;;;23.33;39.06;100855.53;4999479;28;20053;-78
2022/08/20 06:50:30;;;;;;;10.57;4.80;;;;;;;23.64;38.54;100863.03;5016683;28;20108;-78
2022/08/20 06:52:57;;;;;;;11.75;4.22;;;;;;;23.65;36.78;100864.75;5034147;28;20037;-77
2022/08/20 06:55:23;;;;;;;8.88;4.72;;;;;;;23.41;37.36;100861.00;5033869;28;20080;-75
2022/08/20 06:58:00;;;;;;;5.97;4.28;;;;;;;23.33;37.80;100863.72;5032432;28;20049;-76
2022/08/20 07:00:29;;;;;;;8.05;4.30;;;;;;;23.40;36.89;100856.56;5016657;28;20080;-78
2022/08/20 07:02:56;;;;;;;10.27;4.05;;;;;;;23.49;36.92;100861.00;5032183;28;20072;-76
2022/08/20 07:05:23;;;;;;;9.27;3.50;;;;;;;23.65;36.61;100867.47;5032514;28;20095;-76
2022/08/20 07:07:49;;;;;;;6.35;3.78;;;;;;;23.41;36.97;100860.13;5015922;28;20056;-76
2022/08/20 07:10:17;;;;;;;7.15;4.20;;;;;;;23.43;36.97;100861.69;5015985;28;20041;-78
2022/08/20 07:12:45;;;;;;;9.07;4.03;;;;;;;23.45;37.08;100856.03;5032395;28;20088;-86
2022/08/20 07:15:14;;;;;;;14.35;4.25;;;;;;;23.62;36.62;100849.59;5032872;28;20107;-75
2022/08/20 07:17:40;;;;;;;8.40;4.22;;;;;;;23.68;36.77;100854.38;5031855;28;20470;-77
2022/08/20 07:20:13;;;;;;;6.78;3.97;;;;;;;23.49;36.55;100861.00;5034020;28;20047;-80
2022/08/20 07:22:40;;;;;;;9.02;4.45;;;;;;;23.74;36.64;100858.31;5032542;28;20048;-77
2022/08/20 07:25:09;;;;;;;7.38;3.63;;;;;;;24.03;36.68;100854.16;5016001;28;20136;-77
2022/08/20 07:27:37;;;;;;;7.82;3.70;;;;;;;24.19;36.16;100851.41;5032144;28;20464;-77
2022/08/20 07:32:54;;;;;;;8.82;3.63;;;;;;;24.33;35.90;100836.16;5032553;28;20046;-81
2022/08/20 07:35:20;;;;;;;8.43;3.75;;;;;;;24.51;35.67;100833.22;5032468;28;20055;-75
2022/08/20 07:37:50;;;;;;;8.27;3.40;;;;;;;24.66;35.02;100848.69;5031964;28;20037;-81
2022/08/20 07:40:28;;;;;;;9.05;4.05;;;;;;;24.67;35.02;100841.34;5032861;28;20084;-76
2022/08/20 07:42:56;;;;;;;6.73;3.50;;;;;;;24.71;34.88;100838.09;5015540;28;20137;-77
2022/08/20 07:45:22;;;;;;;4.20;3.57;;;;;;;24.94;34.50;100835.41;5032572;28;20054;-76
2022/08/20 07:47:52;;;;;;;6.65;3.75;;;;;;;25.07;34.31;100833.97;5031444;28;20148;-76
2022/08/20 07:50:24;;;;;;;7.20;3.10;;;;;;;25.18;33.46;100830.84;5033461;28;20174;-76
2022/08/20 07:52:51;;;;;;;7.70;3.28;;;;;;;25.09;33.39;100834.63;5015706;28;20048;-78
2022/08/20 07:55:20;;;;;;;6.72;2.92;;;;;;;25.08;33.38;100833.75;5033169;28;20053;-75
2022/08/20 07:57:48;;;;;;;9.48;2.92;;;;;;;24.68;33.63;100824.78;5031137;28;20095;-76
2022/08/20 08:00:16;;;;;;;5.03;3.00;;;;;;;24.99;33.53;100837.59;5031197;28;20151;-76
2022/08/20 08:02:42;;;;;;;12.57;3.22;;;;;;;25.18;33.30;100828.09;5031964;28;20501;-76
2022/08/20 08:05:09;;;;;;;10.70;3.20;;;;;;;25.23;33.28;100825.66;4999476;28;20071;-76
2022/08/20 08:07:36;;;;;;;7.40;3.80;;;;;;;25.26;33.47;100811.63;5015458;28;20046;-78
2022/08/20 08:10:06;;;;;;;7.55;2.90;;;;;;;25.23;33.15;100820.19;5031557;28;20080;-77
2022/08/20 08:12:36;;;;;;;4.28;3.10;;;;;;;25.46;32.99;100816.59;5032893;28;20064;-78
2022/08/20 08:15:08;;;;;;;9.23;2.97;;;;;;;25.48;33.18;100822.75;5014839;28;20135;-78
2022/08/20 08:17:36;;;;;;;13.38;3.47;;;;;;;25.82;33.24;100817.66;5031146;28;20080;-77
2022/08/20 08:20:06;;;;;;;7.40;3.30;;;;;;;26.07;32.65;100826.50;5032678;28;20047;-80
2022/08/20 08:22:33;;;;;;;8.45;3.00;;;;;;;26.03;32.62;100818.84;5015154;28;20079;-78
2022/08/20 08:25:01;;;;;;;7.90;2.83;;;;;;;26.29;32.22;100818.34;5014781;28;20049;-78
2022/08/20 08:27:33;;;;;;;4.07;3.00;;;;;;;26.35;32.10;100817.59;5032485;28;20407;-79
2022/08/20 08:30:02;;;;;;;6.30;3.17;;;;;;;26.44;32.28;100816.47;5031114;28;20046;-77
2022/08/20 08:32:31;;;;;;;14.15;3.17;;;;;;;26.61;31.63;100819.88;5032666;28;20052;-79
2022/08/20 08:35:01;;;;;;;5.37;2.90;;;;;;;26.31;32.49;100813.53;5029385;28;20048;-79
2022/08/20 08:37:28;;;;;;;4.20;3.10;;;;;;;26.44;32.03;100810.13;5031847;28;20047;-78
2022/08/20 08:39:54;;;;;;;9.15;3.10;;;;;;;26.77;32.08;100800.44;5033500;28;20131;-78
2022/08/20 08:42:29;;;;;;;7.85;3.13;;;;;;;27.05;31.61;100802.47;5050447;28;20486;-79
2022/08/20 08:44:56;;;;;;;10.10;3.10;;;;;;;27.28;31.43;100805.88;5051146;28;20053;-77
2022/08/20 08:47:36;;;;;;;11.25;3.63;;;;;;;26.96;31.37;100796.22;5034606;28;20092;-79
2022/08/20 08:50:06;;;;;;;9.55;3.38;;;;;;;26.58;32.26;100795.56;5052528;28;20143;-79
2022/08/20 08:52:39;;;;;;;7.47;3.22;;;;;;;26.85;32.08;100802.22;5054753;28;20037;-79
2022/08/20 08:55:14;;;;;;;5.57;2.78;;;;;;;27.35;31.62;100798.56;5059136;28;20536;-79
2022/08/20 08:57:41;;;;;;;4.63;3.00;;;;;;;27.36;30.82;100791.16;5058016;28;20434;-78
2022/08/20 09:00:13;;;;;;;10.68;3.25;;;;;;;27.59;31.40;100779.97;5055823;28;20056;-81
2022/08/20 09:02:41;;;;;;;11.57;3.35;;;;;;;27.71;31.19;100775.59;5057151;28;20045;-81
2022/08/20 09:05:18;;;;;;;13.18;3.92;;;;;;;27.70;31.13;100782.16;5037477;28;20058;-78
2022/08/20 09:07:50;;;;;;;8.75;3.42;;;;;;;27.62;31.38;100774.06;5055963;28;20044;-77
2022/08/20 09:10:17;;;;;;;21.58;3.55;;;;;;;27.65;31.47;100762.69;5039814;28;20037;-79
2022/08/20 09:12:44;;;;;;;16.92;3.40;;;;;;;27.86;31.64;100771.94;5056279;28;20040;-79
2022/08/20 09:15:11;;;;;;;10.50;3.70;;;;;;;27.83;31.20;100749.31;5056639;28;20072;-83
2022/08/20 09:17:37;;;;;;;5.93;3.50;;;;;;;27.92;31.20;100750.00;5057025;28;20043;-78
2022/08/20 09:20:04;;;;;;;8.80;3.90;;;;;;;28.17;31.34;100753.13;5058809;28;20037;-79
2022/08/20 09:22:32;;;;;;;10.70;3.75;;;;;;;28.35;31.03;100757.19;5007466;28;20044;-81
2022/08/20 09:24:59;;;;;;;11.15;3.35;;;;;;;28.26;30.59;100735.38;5054332;28;20048;-80
2022/08/20 09:27:25;;;;;;;7.45;3.45;;;;;;;28.64;30.46;100748.69;5056654;28;20037;-79
2022/08/20 09:29:52;;;;;;;5.57;3.00;;;;;;;28.48;30.00;100741.66;5057055;28;20132;-78
2022/08/20 09:32:21;;;;;;;12.40;3.28;;;;;;;28.16;30.92;100737.66;5057577;28;20037;-78
2022/08/20 09:34:55;;;;;;;5.50;3.22;;;;;;;28.22;30.91;100730.50;5040953;28;20090;-79
2022/08/20 09:37:24;;;;;;;12.00;3.33;;;;;;;28.15;31.17;100733.22;5024381;28;20037;-85
2022/08/20 09:39:50;;;;;;;13.50;3.33;;;;;;;28.35;30.83;100726.94;5040891;28;20045;-81
2022/08/20 09:42:22;;;;;;;7.28;3.55;;;;;;;28.40;30.84;100735.44;5057738;28;20064;-80
2022/08/20 09:44:49;;;;;;;13.07;3.97;;;;;;;28.52;30.75;100742.09;5022483;28;20525;-79
2022/08/20 09:47:16;;;;;;;8.65;3.50;;;;;;;28.69;30.40;100735.13;5036666;28;20505;-79
2022/08/20 09:49:43;;;;;;;6.78;3.20;;;;;;;28.92;30.28;100728.41;5038760;28;20398;-79
2022/08/20 09:52:33;;;;;;;10.88;3.30;;;;;;;28.98;29.87;100727.63;5032557;28;20175;-78
2022/08/20 09:55:15;;;;;;;7.95;3.22;;;;;;;29.15;29.67;100722.53;5063769;28;20037;-78
2022/08/20 09:57:41;;;;;;;7.05;3.10;;;;;;;29.11;29.84;100721.25;5057027;28;20098;-79
2022/08/20 10:00:09;;;;;;;4.75;3.08;;;;;;;29.27;29.60;100720.88;5024391;28;20036;-79
2022/08/20 10:02:39;;;;;;;12.27;3.60;;;;;;;29.46;29.29;100717.25;5058914;28;20041;-79
2022/08/20 10:05:07;;;;;;;6.15;3.00;;;;;;;29.45;28.51;100698.16;5053271;28;20484;-78
2022/08/20 10:07:36;;;;;;;5.07;3.30;;;;;;;30.08;28.41;100716.94;5036720;28;20043;-80
2022/08/20 10:10:02;;;;;;;;;;;;;;;29.84;28.76;100711.06;5036785;28;20041;-79
2022/08/20 10:12:29;;;;;;;10.25;3.03;;;;;;;30.34;28.39;100693.94;5035799;28;19927;-79
2022/08/20 10:14:55;;;;;;;6.75;3.17;;;;;;;30.39;27.77;100702.41;5036268;28;20124;-78
2022/08/20 10:17:21;;;;;;;6.88;3.38;;;;;;;30.23;27.93;100699.06;5053315;28;20029;-79
2022/08/20 10:19:47;;;;;;;9.35;3.60;;;;;;;30.31;27.53;100694.38;5055066;28;20052;-80
2022/08/20 10:22:13;;;;;;;4.80;3.05;;;;;;;30.38;27.66;100684.16;5054270;28;20380;-78
2022/08/20 10:24:39;;;;;;;8.82;3.47;;;;;;;30.49;27.42;100686.22;5053790;28;20033;-80
2022/08/20 10:27:05;;;;;;;4.40;2.80;;;;;;;30.76;27.50;100675.03;5037103;28;20041;-78
2022/08/20 10:29:31;;;;;;;6.63;3.17;;;;;;;30.97;26.95;100660.88;5053787;28;20135;-80
2022/08/20 10:32:08;;;;;;;5.85;3.28;;;;;;;30.89;27.08;100681.31;5020595;28;20087;-80
2022/08/20 10:34:34;;;;;;;8.40;2.88;;;;;;;31.11;26.89;100683.72;5053823;28;20072;-79
2022/08/20 10:37:00;;;;;;;8.45;3.10;;;;;;;31.42;26.52;100678.13;5036699;28;20076;-78
2022/08/20 10:39:26;;;;;;;7.15;3.00;;;;;;;31.87;26.27;100666.00;5053077;28;20076;-79
2022/08/20 10:41:52;;;;;;;7.70;3.17;;;;;;;31.76;26.11;100669.50;5036330;28;20068;-78
2022/08/20 10:44:17;;;;;;;4.60;3.10;;;;;;;31.68;25.65;100668.72;5052878;28;20106;-79
2022/08/20 10:46:44;;;;;;;8.60;3.05;;;;;;;32.04;25.60;100653.22;5035332;28;20088;-79
2022/08/20 10:49:10;;;;;;;6.82;3.38;;;;;;;32.08;25.31;100665.53;5052714;28;20186;-82
2022/08/20 10:51:36;;;;;;;10.90;3.53;;;;;;;32.30;25.23;100659.50;5055513;28;20048;-79
2022/08/20 10:54:02;;;;;;;7.97;3.45;;;;;;;32.79;25.05;100661.13;5058756;28;20045;-89
2022/08/20 10:56:28;;;;;;;10.07;3.00;;;;;;;33.00;24.68;100662.53;5062069;28;20049;-81
2022/08/20 10:58:54;;;;;;;5.57;3.22;;;;;;;32.98;24.75;100645.31;5053215;28;20573;-81
2022/08/20 11:01:20;;;;;;;12.25;3.33;;;;;;;33.02;24.12;100660.34;5053408;28;20049;-82
2022/08/20 11:03:46;;;;;;;4.28;3.15;;;;;;;33.39;23.95;100639.91;5037040;28;20441;-83
2022/08/20 11:06:12;;;;;;;6.13;3.85;;;;;;;33.47;23.51;100643.19;5037042;28;20048;-83
2022/08/20 11:08:38;;;;;;;8.35;3.33;;;;;;;33.14;23.81;100638.22;5045439;28;20059;-85
2022/08/20 11:11:04;;;;;;;6.80;3.08;;;;;;;33.31;23.52;100649.44;5054828;28;20048;-85
2022/08/20 11:13:32;;;;;;;12.90;3.42;;;;;;;33.30;23.65;100637.50;5036705;28;20049;-82
2022/08/20 11:15:58;;;;;;;9.23;3.07;;;;;;;33.20;23.79;100642.78;5053446;28;20036;-82
2022/08/20 11:18:24;;;;;;;5.55;3.05;;;;;;;33.31;23.85;100643.88;5036612;28;20064;-81
2022/08/20 11:20:49;;;;;;;10.13;2.90;;;;;;;33.27;23.43;100637.13;5054095;28;20144;-82
2022/08/20 11:23:15;;;;;;;7.40;3.22;;;;;;;33.55;23.42;100641.97;5051683;28;20049;-89
2022/08/20 11:25:41;;;;;;;8.07;3.03;;;;;;;33.29;23.62;100626.66;5037181;28;20488;-88
2022/08/20 11:28:07;;;;;;;9.18;2.97;;;;;;;33.30;23.84;100629.19;5032434;28;20075;-85
2022/08/20 11:30:35;;;;;;;10.68;3.15;;;;;;;33.28;23.49;100628.56;5049646;28;20098;-79
2022/08/20 11:33:01;;;;;;;22.40;4.32;;;;;;;33.67;23.64;100619.78;5052711;28;20426;-80